Terminal Aerodrome Forecast
Issued by NWS

Current Version | Previous Version | Text Only | Print | Product List | Glossary On
Versions: 1 2 3 4 5 6 7 8 9 10 11 12 13 14 15 16 17 18 19 20 21
000
FTUS44 KLZK 182100 AAB
TAFHRO
TAF AMD
KHRO 182110Z 1821/1918 12005KT P6SM OVC007
     FM190100 08003KT 4SM BR OVC005
     FM190800 07003KT 2SM -DZ BR OVC003
      TEMPO 1909/1913 1/2SM FG VV001
     FM191600 11004KT 5SM BR OVC007=

USA.gov is the U.S. government's official web portal to all federal, state and local government web resources and services.